createdAt,value
2019-05-11T00:01:39.519Z,69.75
2019-05-11T00:04:07.044Z,69.48
2019-05-11T00:06:34.556Z,70.87
2019-05-11T00:09:02.042Z,69.35
2019-05-11T00:11:29.385Z,70.29
2019-05-11T00:14:00.710Z,71.60
2019-05-11T00:16:27.958Z,71.33
2019-05-11T00:18:58.308Z,69.43
2019-05-11T00:21:25.603Z,69.79
2019-05-11T00:23:52.888Z,74.21
2019-05-11T00:26:20.156Z,69.15
2019-05-11T00:28:47.699Z,70.66
2019-05-11T00:31:16.227Z,70.79
2019-05-11T00:33:43.425Z,73.30
2019-05-11T00:36:10.693Z,75.55
2019-05-11T00:38:37.988Z,70.37
2019-05-11T00:41:05.458Z,74.76
2019-05-11T00:43:32.765Z,71.04
2019-05-11T00:46:00.288Z,70.58
2019-05-11T00:48:27.734Z,70.26
2019-05-11T00:50:54.977Z,71.55
2019-05-11T00:53:22.239Z,75.56
2019-05-11T00:55:49.782Z,70.89
2019-05-11T00:58:17.057Z,69.74
2019-05-11T01:00:44.581Z,73.49
2019-05-11T01:03:11.974Z,72.80
2019-05-11T01:05:39.232Z,76.93
2019-05-11T01:08:06.388Z,77.18
2019-05-11T01:10:41.804Z,75.31
2019-05-11T01:13:05.092Z,73.96
2019-05-11T01:15:32.610Z,77.10
2019-05-11T01:17:59.883Z,76.31
2019-05-11T01:20:27.518Z,76.40
2019-05-11T01:22:54.734Z,78.71
2019-05-11T01:25:21.879Z,78.47
2019-05-11T01:27:51.945Z,76.95
2019-05-11T01:30:19.408Z,76.58
2019-05-11T01:32:46.582Z,78.64
2019-05-11T01:35:14.539Z,75.72
2019-05-11T01:37:41.693Z,77.04
2019-05-11T01:40:09.557Z,75.58
2019-05-11T01:42:36.721Z,77.82
2019-05-11T01:45:04.756Z,74.76
2019-05-11T01:47:32.019Z,78.24
2019-05-11T01:49:59.882Z,76.89
2019-05-11T01:52:27.237Z,78.29
2019-05-11T01:54:54.402Z,77.34
2019-05-11T01:57:21.550Z,76.96
2019-05-11T01:59:48.697Z,78.83
2019-05-11T02:02:15.956Z,78.76
2019-05-11T02:04:43.197Z,80.69
2019-05-11T02:07:10.556Z,78.52
2019-05-11T02:09:37.757Z,79.99
2019-05-11T02:12:05.048Z,78.76
2019-05-11T02:14:32.203Z,77.31
2019-05-11T02:16:59.448Z,80.09
2019-05-11T02:19:26.682Z,80.25
2019-05-11T02:21:53.946Z,80.40
2019-05-11T02:24:21.201Z,79.08
2019-05-11T02:26:48.457Z,80.70
2019-05-11T02:29:15.593Z,79.81
2019-05-11T02:31:42.756Z,79.14
2019-05-11T02:34:10.040Z,77.97
2019-05-11T02:36:37.483Z,78.91
2019-05-11T02:39:06.379Z,79.51
2019-05-11T02:41:36.684Z,81.36
2019-05-11T02:44:03.223Z,79.92
2019-05-11T02:46:30.580Z,78.90
2019-05-11T02:48:57.842Z,81.07
2019-05-11T02:51:27.725Z,80.96
2019-05-11T02:53:56.000Z,80.42
2019-05-11T02:56:23.272Z,81.13
2019-05-11T02:58:50.461Z,81.64
2019-05-11T03:01:17.698Z,82.35
2019-05-11T03:03:44.845Z,79.87
2019-05-11T03:06:12.325Z,81.86
2019-05-11T03:08:39.455Z,80.82
2019-05-11T03:11:06.623Z,80.76
2019-05-11T03:13:33.983Z,82.09
2019-05-11T03:16:01.281Z,81.80
2019-05-11T03:18:28.531Z,82.19
2019-05-11T03:20:55.675Z,81.69
2019-05-11T03:23:22.955Z,81.89
2019-05-11T03:25:50.209Z,82.14
2019-05-11T03:28:17.371Z,80.76
2019-05-11T03:30:44.533Z,80.89
2019-05-11T03:33:11.675Z,82.45
2019-05-11T03:35:38.883Z,82.42
2019-05-11T03:38:06.078Z,82.05
2019-05-11T03:40:33.346Z,81.76
2019-05-11T03:43:00.479Z,83.18
2019-05-11T03:45:27.749Z,85.10
2019-05-11T03:47:54.976Z,83.57
2019-05-11T03:50:22.125Z,82.48
2019-05-11T03:52:49.282Z,82.22
2019-05-11T03:55:16.740Z,83.73
2019-05-11T03:57:44.049Z,82.92
2019-05-11T04:00:13.520Z,83.94
2019-05-11T04:02:40.893Z,82.00
2019-05-11T04:05:08.448Z,84.01
2019-05-11T04:07:35.695Z,84.63
2019-05-11T04:10:03.780Z,84.37
2019-05-11T04:12:35.318Z,84.83
2019-05-11T04:15:00.115Z,84.74
2019-05-11T04:17:27.274Z,85.07
2019-05-11T04:19:54.501Z,85.38
2019-05-11T04:22:21.646Z,85.03
2019-05-11T04:24:48.800Z,84.19
2019-05-11T04:27:19.492Z,85.30
2019-05-11T04:29:45.097Z,85.50
2019-05-11T04:32:12.252Z,85.26
2019-05-11T04:34:39.524Z,85.15
2019-05-11T04:37:06.917Z,85.50
2019-05-11T04:39:34.170Z,85.75
2019-05-11T04:42:01.534Z,85.73
2019-05-11T04:44:28.690Z,84.90
2019-05-11T04:46:55.821Z,84.37
2019-05-11T04:49:23.180Z,84.81
2019-05-11T04:51:50.479Z,84.03
2019-05-11T04:54:17.639Z,84.74
2019-05-11T04:56:44.792Z,84.81
2019-05-11T04:59:11.939Z,85.94
2019-05-11T05:01:39.320Z,85.10
2019-05-11T05:04:13.676Z,83.60
2019-05-11T05:06:38.813Z,85.26
2019-05-11T05:09:05.738Z,84.95
2019-05-11T05:11:36.674Z,84.05
2019-05-11T05:14:08.354Z,85.46
2019-05-11T05:16:31.769Z,85.03
2019-05-11T05:18:59.013Z,84.36
2019-05-11T05:21:26.173Z,84.29
2019-05-11T05:23:53.350Z,83.60
2019-05-11T05:26:20.516Z,84.90
2019-05-11T05:28:47.676Z,84.45
2019-05-11T05:31:14.928Z,86.08
2019-05-11T05:33:42.191Z,85.37
2019-05-11T05:36:09.568Z,85.18
2019-05-11T05:38:36.961Z,84.98
2019-05-11T05:41:04.421Z,83.80
2019-05-11T05:43:31.805Z,84.48
2019-05-11T05:45:59.061Z,85.27
2019-05-11T05:48:26.317Z,84.90
2019-05-11T05:50:53.499Z,85.42
2019-05-11T05:53:20.633Z,84.42
2019-05-11T05:55:47.865Z,84.22
2019-05-11T05:58:15.237Z,83.92
2019-05-11T06:00:42.711Z,85.94
2019-05-11T06:03:09.968Z,83.85
2019-05-11T06:05:37.105Z,84.71
2019-05-11T06:08:04.371Z,85.65
2019-05-11T06:10:31.507Z,86.42
2019-05-11T06:12:58.966Z,85.58
2019-05-11T06:15:26.355Z,85.65
2019-05-11T06:17:53.600Z,86.72
2019-05-11T06:20:20.983Z,85.54
2019-05-11T06:22:48.130Z,86.17
2019-05-11T06:25:17.977Z,83.78
2019-05-11T06:27:45.446Z,84.18
2019-05-11T06:30:14.038Z,84.67
2019-05-11T06:32:41.280Z,83.43
2019-05-11T06:35:11.018Z,83.87
2019-05-11T06:37:38.874Z,82.25
2019-05-11T06:40:07.093Z,82.41
2019-05-11T06:42:34.431Z,83.66
2019-05-11T06:45:01.778Z,83.27
2019-05-11T06:47:31.404Z,83.50
2019-05-11T06:49:58.781Z,82.19
2019-05-11T06:52:26.920Z,82.61
2019-05-11T06:54:54.217Z,81.53
2019-05-11T06:57:21.370Z,81.25
2019-05-11T06:59:48.735Z,83.33
2019-05-11T07:02:16.103Z,82.07
2019-05-11T07:04:43.248Z,79.98
2019-05-11T07:07:10.540Z,82.53
2019-05-11T07:09:37.906Z,79.20
2019-05-11T07:12:05.298Z,83.34
2019-05-11T07:14:32.527Z,82.92
2019-05-11T07:16:59.677Z,84.03
2019-05-11T07:19:26.839Z,82.08
2019-05-11T07:21:54.086Z,83.88
2019-05-11T07:24:21.334Z,83.14
2019-05-11T07:26:48.496Z,82.01
2019-05-11T07:29:15.650Z,79.34
2019-05-11T07:31:42.922Z,80.30
2019-05-11T07:34:10.083Z,79.35
2019-05-11T07:36:38.845Z,79.97
2019-05-11T07:39:08.296Z,80.27
2019-05-11T07:41:35.686Z,80.53
2019-05-11T07:44:03.136Z,83.26
2019-05-11T07:46:30.388Z,81.91
2019-05-11T07:48:58.471Z,81.12
2019-05-11T07:51:28.522Z,81.11
2019-05-11T07:53:57.643Z,81.55
2019-05-11T07:56:24.674Z,83.06
2019-05-11T07:58:52.692Z,81.87
2019-05-11T08:01:19.857Z,80.82
2019-05-11T08:03:48.336Z,81.89
2019-05-11T08:06:18.228Z,81.62
2019-05-11T08:08:45.293Z,80.49
2019-05-11T08:11:12.761Z,80.06
2019-05-11T08:13:39.916Z,82.12
2019-05-11T08:16:08.257Z,79.10
2019-05-11T08:18:38.512Z,79.98
2019-05-11T08:21:05.081Z,82.16
2019-05-11T08:23:32.231Z,80.39
2019-05-11T08:25:59.928Z,80.61
2019-05-11T08:28:28.806Z,78.62
2019-05-11T08:30:57.948Z,82.03
2019-05-11T08:33:25.537Z,82.10
2019-05-11T08:35:52.918Z,82.34
2019-05-11T08:38:20.212Z,80.61
2019-05-11T08:40:48.462Z,81.39
2019-05-11T08:43:17.982Z,81.62
2019-05-11T08:45:45.002Z,80.28
2019-05-11T08:48:12.268Z,81.41
2019-05-11T08:50:39.510Z,80.28
2019-05-11T08:53:08.617Z,80.00
2019-05-11T08:55:38.162Z,79.56
2019-05-11T08:58:07.898Z,81.38
2019-05-11T09:00:35.244Z,82.73
2019-05-11T09:03:03.118Z,80.92
2019-05-11T09:05:30.687Z,81.51
2019-05-11T09:07:58.030Z,80.90
2019-05-11T09:10:27.834Z,82.26
2019-05-11T09:12:54.270Z,78.90
2019-05-11T09:15:33.616Z,80.28
2019-05-11T09:17:50.662Z,79.34
2019-05-11T09:20:18.423Z,80.11
2019-05-11T09:22:45.700Z,79.87
2019-05-11T09:25:13.056Z,78.22
2019-05-11T09:27:43.367Z,78.47
2019-05-11T09:30:10.662Z,76.34
2019-05-11T09:32:39.216Z,77.60
2019-05-11T09:35:08.339Z,78.69
2019-05-11T09:37:38.123Z,77.95
2019-05-11T09:40:07.682Z,79.33
2019-05-11T09:42:34.638Z,77.98
2019-05-11T09:45:02.107Z,78.56
2019-05-11T09:47:29.360Z,81.46
2019-05-11T09:49:58.246Z,81.49
2019-05-11T09:52:32.366Z,81.95
2019-05-11T09:54:59.091Z,81.26
2019-05-11T09:57:27.628Z,79.93
2019-05-11T09:59:58.232Z,78.79
2019-05-11T10:02:27.910Z,79.23
2019-05-11T10:04:54.852Z,80.19
2019-05-11T10:07:22.208Z,80.41
2019-05-11T10:09:49.476Z,78.71
2019-05-11T10:12:18.450Z,79.61
2019-05-11T10:14:48.441Z,77.86
2019-05-11T10:17:18.086Z,81.07
2019-05-11T10:19:47.591Z,81.41
2019-05-11T10:22:18.422Z,79.20
2019-05-11T10:24:47.634Z,82.00
2019-05-11T10:27:18.740Z,80.18
2019-05-11T10:29:48.459Z,82.07
2019-05-11T10:32:18.140Z,80.45
2019-05-11T10:34:47.795Z,80.60
2019-05-11T10:37:17.525Z,79.35
2019-05-11T10:39:44.957Z,79.68
2019-05-11T10:42:18.015Z,79.68
2019-05-11T10:44:47.718Z,79.60
2019-05-11T10:47:14.672Z,80.66
2019-05-11T10:49:42.352Z,79.46
2019-05-11T10:52:10.177Z,81.14
2019-05-11T10:54:39.923Z,79.50
2019-05-11T10:57:08.457Z,78.98
2019-05-11T10:59:38.593Z,78.62
2019-05-11T11:02:05.315Z,78.51
2019-05-11T11:04:32.672Z,78.73
2019-05-11T11:07:00.234Z,78.89
2019-05-11T11:09:28.208Z,76.98
2019-05-11T11:11:57.829Z,77.15
2019-05-11T11:14:24.878Z,79.30
2019-05-11T11:16:52.112Z,78.45
2019-05-11T11:19:19.938Z,78.43
2019-05-11T11:21:48.797Z,79.35
2019-05-11T11:24:17.969Z,77.88
2019-05-11T11:26:48.418Z,79.69
2019-05-11T11:29:17.876Z,80.05
2019-05-11T11:31:48.144Z,78.43
2019-05-11T11:34:18.562Z,77.72
2019-05-11T11:36:48.141Z,79.27
2019-05-11T11:39:18.543Z,77.96
2019-05-11T11:41:48.677Z,78.09
2019-05-11T11:44:18.330Z,77.19
2019-05-11T11:46:52.038Z,78.66
2019-05-11T11:49:24.124Z,76.90
2019-05-11T11:51:51.858Z,76.77
2019-05-11T11:54:19.953Z,76.21
2019-05-11T11:56:48.488Z,76.30
2019-05-11T11:59:17.865Z,76.48
2019-05-11T12:01:48.489Z,75.94
2019-05-11T12:04:15.287Z,75.66
2019-05-11T12:06:42.860Z,75.95
2019-05-11T12:09:10.344Z,74.72
2019-05-11T12:11:38.067Z,74.72
2019-05-11T12:14:08.504Z,73.03
2019-05-11T12:16:35.785Z,74.89
2019-05-11T12:19:05.286Z,74.82
2019-05-11T12:21:32.405Z,73.21
2019-05-11T12:23:59.676Z,73.10
2019-05-11T12:26:28.180Z,74.48
2019-05-11T12:28:57.545Z,73.76
2019-05-11T12:31:24.792Z,73.47
2019-05-11T12:33:51.931Z,73.48
2019-05-11T12:36:19.298Z,73.93
2019-05-11T12:38:48.616Z,73.75
2019-05-11T12:41:15.635Z,73.84
2019-05-11T12:43:43.000Z,73.72
2019-05-11T12:46:10.480Z,75.10
2019-05-11T12:48:38.043Z,74.40
2019-05-11T12:51:07.774Z,75.50
2019-05-11T12:53:34.657Z,76.23
2019-05-11T12:56:02.163Z,75.64
2019-05-11T12:58:29.313Z,76.34
2019-05-11T13:00:58.560Z,75.93
2019-05-11T13:03:27.717Z,76.78
2019-05-11T13:05:54.954Z,77.44
2019-05-11T13:08:22.260Z,77.55
2019-05-11T13:10:49.532Z,77.79
2019-05-11T13:13:18.201Z,77.56
2019-05-11T13:15:47.976Z,78.25
2019-05-11T13:18:15.488Z,78.04
2019-05-11T13:20:42.914Z,77.87
2019-05-11T13:23:10.091Z,78.20
2019-05-11T13:25:38.771Z,78.11
2019-05-11T13:28:08.498Z,78.18
2019-05-11T13:30:38.056Z,78.03
2019-05-11T13:33:05.228Z,78.96
2019-05-11T13:35:33.192Z,78.77
2019-05-11T13:38:00.672Z,78.46
2019-05-11T13:40:28.190Z,78.27
2019-05-11T13:42:58.113Z,78.48
2019-05-11T13:45:25.587Z,78.15
2019-05-11T13:47:56.009Z,76.83
2019-05-11T13:50:23.072Z,77.52
2019-05-11T13:52:50.343Z,77.36
2019-05-11T13:55:19.278Z,77.14
2019-05-11T13:57:49.958Z,77.19
2019-05-11T14:00:17.786Z,77.31
2019-05-11T14:02:45.132Z,77.29
2019-05-11T14:05:12.971Z,77.01
2019-05-11T14:07:40.276Z,77.48
2019-05-11T14:10:08.275Z,76.13
2019-05-11T14:12:38.317Z,77.16
2019-05-11T14:15:08.350Z,76.37
2019-05-11T14:17:35.445Z,77.37
2019-05-11T14:20:03.779Z,75.82
2019-05-11T14:22:31.143Z,76.38
2019-05-11T14:25:00.894Z,76.09
2019-05-11T14:27:28.448Z,76.89
2019-05-11T14:29:57.903Z,77.50
2019-05-11T14:32:25.499Z,77.14
2019-05-11T14:34:52.700Z,77.86
2019-05-11T14:37:20.264Z,77.11
2019-05-11T14:39:48.188Z,77.96
2019-05-11T14:42:19.949Z,77.15
2019-05-11T14:44:44.887Z,78.11
2019-05-11T14:47:12.533Z,77.58
2019-05-11T14:49:43.284Z,76.67
2019-05-11T14:52:10.773Z,76.93
2019-05-11T14:54:38.399Z,76.51
2019-05-11T14:57:08.154Z,75.29
2019-05-11T14:59:37.353Z,75.85
2019-05-11T15:02:24.820Z,76.19
2019-05-11T15:04:52.182Z,75.73
2019-05-11T15:07:19.368Z,75.79
2019-05-11T15:09:48.059Z,75.66
2019-05-11T15:12:18.364Z,75.76
2019-05-11T15:14:45.964Z,76.48
2019-05-11T15:17:13.448Z,76.11
2019-05-11T15:19:40.599Z,75.63
2019-05-11T15:22:09.243Z,76.08
2019-05-11T15:24:38.481Z,76.04
2019-05-11T15:27:08.021Z,76.76
2019-05-11T15:29:35.145Z,76.36
2019-05-11T15:32:05.016Z,76.41
2019-05-11T15:34:32.343Z,77.09
2019-05-11T15:36:59.762Z,76.52
2019-05-11T15:39:28.799Z,76.82
2019-05-11T15:42:09.308Z,76.70
2019-05-11T15:44:25.351Z,77.14
2019-05-11T15:46:52.723Z,77.01
2019-05-11T15:49:20.142Z,76.74
2019-05-11T15:51:48.849Z,77.51
2019-05-11T15:54:18.474Z,77.09
2019-05-11T15:56:45.547Z,77.44
2019-05-11T15:59:12.835Z,77.61
2019-05-11T16:01:41.177Z,77.62
2019-05-11T16:04:09.226Z,77.25
2019-05-11T16:06:36.918Z,77.48
2019-05-11T16:09:09.447Z,78.29
2019-05-11T16:11:38.843Z,78.56
2019-05-11T16:14:20.542Z,78.14
2019-05-11T16:16:48.152Z,78.20
2019-05-11T16:19:15.800Z,78.10
2019-05-11T16:21:43.355Z,78.01
2019-05-11T16:24:11.830Z,78.00
2019-05-11T16:26:41.846Z,78.13
2019-05-11T16:29:11.416Z,77.49
2019-05-11T16:31:38.288Z,78.24
2019-05-11T16:34:07.850Z,78.94
2019-05-11T16:36:34.941Z,78.78
2019-05-11T16:39:04.315Z,78.05
2019-05-11T16:41:31.611Z,78.39
2019-05-11T16:43:59.037Z,78.17
2019-05-11T16:46:28.444Z,78.69
2019-05-11T16:48:57.854Z,78.89
2019-05-11T16:51:25.054Z,78.51
2019-05-11T16:53:52.465Z,79.09
2019-05-11T16:56:21.726Z,78.77
2019-05-11T16:58:48.931Z,79.29
2019-05-11T17:01:18.846Z,79.57
2019-05-11T17:03:48.223Z,78.18
2019-05-11T17:06:15.654Z,79.21
2019-05-11T17:08:42.950Z,79.54
2019-05-11T17:11:10.190Z,79.93
2019-05-11T17:13:37.922Z,79.52
2019-05-11T17:16:08.397Z,80.22
2019-05-11T17:18:35.146Z,80.29
2019-05-11T17:21:04.372Z,80.63
2019-05-11T17:23:31.730Z,80.21
2019-05-11T17:25:59.355Z,80.55
2019-05-11T17:28:26.749Z,80.14
2019-05-11T17:30:54.134Z,80.59
2019-05-11T17:33:28.769Z,79.73
2019-05-11T17:35:55.962Z,80.71
2019-05-11T17:38:23.426Z,80.93
2019-05-11T17:40:55.084Z,81.33
2019-05-11T17:43:23.182Z,80.50
2019-05-11T17:45:58.646Z,81.07
2019-05-11T17:48:28.690Z,81.28
2019-05-11T17:50:57.984Z,80.14
2019-05-11T17:53:25.109Z,81.17
2019-05-11T17:55:52.287Z,80.64
2019-05-11T17:58:20.753Z,81.11
2019-05-11T18:00:48.211Z,80.78
2019-05-11T18:03:15.700Z,81.08
2019-05-11T18:05:42.967Z,81.08
2019-05-11T18:08:10.138Z,81.10
2019-05-11T18:10:38.479Z,80.81
2019-05-11T18:13:06.006Z,80.78
2019-05-11T18:15:33.535Z,80.51
2019-05-11T18:18:00.857Z,80.09
2019-05-11T18:20:28.769Z,80.70
2019-05-11T18:22:57.761Z,80.59
2019-05-11T18:25:25.216Z,80.48
2019-05-11T18:27:52.478Z,80.02
2019-05-11T18:30:19.838Z,80.47
2019-05-11T18:32:49.105Z,80.27
2019-05-11T18:35:19.088Z,80.46
2019-05-11T18:37:47.625Z,80.07
2019-05-11T18:40:15.051Z,79.75
2019-05-11T18:42:42.941Z,80.93
2019-05-11T18:45:11.737Z,81.11
2019-05-11T18:47:41.263Z,80.90
2019-05-11T18:50:09.691Z,80.65
2019-05-11T18:52:37.187Z,80.83
2019-05-11T18:55:08.437Z,81.07
2019-05-11T18:57:38.203Z,80.50
2019-05-11T19:00:09.561Z,80.81
2019-05-11T19:02:38.462Z,80.36
2019-05-11T19:05:06.410Z,80.25
2019-05-11T19:07:33.938Z,80.43
2019-05-11T19:10:01.199Z,80.85
2019-05-11T19:12:28.458Z,81.20
2019-05-11T19:14:58.554Z,81.04
2019-05-11T19:17:28.875Z,80.16
2019-05-11T19:19:58.006Z,80.88
2019-05-11T19:22:25.699Z,80.14
2019-05-11T19:24:53.035Z,80.97
2019-05-11T19:27:20.312Z,80.46
2019-05-11T19:29:48.427Z,80.43
2019-05-11T19:32:18.981Z,80.66
2019-05-11T19:34:47.701Z,80.45
2019-05-11T19:37:15.883Z,80.06
2019-05-11T19:39:43.824Z,80.80
2019-05-11T19:42:12.312Z,80.31
2019-05-11T19:44:39.907Z,80.46
2019-05-11T19:47:09.008Z,79.60
2019-05-11T19:49:38.376Z,81.09
2019-05-11T19:52:08.403Z,81.68
2019-05-11T19:54:38.006Z,81.13
2019-05-11T19:57:09.292Z,79.99
2019-05-11T19:59:38.684Z,80.62
2019-05-11T20:02:08.744Z,80.88
2019-05-11T20:04:38.568Z,80.08
2019-05-11T20:07:05.542Z,79.31
2019-05-11T20:09:32.804Z,79.21
2019-05-11T20:12:00.401Z,81.06
2019-05-11T20:14:28.333Z,79.23
2019-05-11T20:16:56.315Z,79.73
2019-05-11T20:19:23.930Z,79.02
2019-05-11T20:21:51.757Z,80.42
2019-05-11T20:24:19.142Z,79.74
2019-05-11T20:26:46.281Z,79.92
2019-05-11T20:29:13.573Z,80.15
2019-05-11T20:31:40.856Z,79.53
2019-05-11T20:34:08.174Z,79.64
2019-05-11T20:36:37.239Z,79.05
2019-05-11T20:39:07.434Z,81.45
2019-05-11T20:41:34.995Z,80.62
2019-05-11T20:44:04.944Z,80.12
2019-05-11T20:46:32.454Z,80.99
2019-05-11T20:49:04.101Z,79.44
2019-05-11T20:51:36.612Z,80.00
2019-05-11T20:54:00.848Z,80.34
2019-05-11T20:56:28.497Z,80.48
2019-05-11T20:58:59.433Z,81.39
2019-05-11T21:01:28.639Z,80.95
2019-05-11T21:03:58.342Z,81.76
2019-05-11T21:06:25.411Z,82.48
2019-05-11T21:08:52.762Z,82.86
2019-05-11T21:11:20.129Z,80.90
2019-05-11T21:13:48.117Z,80.77
2019-05-11T21:16:15.521Z,82.33
2019-05-11T21:18:42.816Z,82.14
2019-05-11T21:21:10.328Z,82.63
2019-05-11T21:23:40.523Z,82.15
2019-05-11T21:26:09.713Z,82.62
2019-05-11T21:28:38.063Z,80.54
2019-05-11T21:31:08.016Z,80.79
2019-05-11T21:33:39.052Z,81.52
2019-05-11T21:36:08.846Z,79.96
2019-05-11T21:38:35.969Z,79.65
2019-05-11T21:41:03.585Z,79.35
2019-05-11T21:43:32.092Z,79.35
2019-05-11T21:46:01.279Z,80.26
2019-05-11T21:48:29.713Z,80.86
2019-05-11T21:50:59.886Z,81.21
2019-05-11T21:53:29.026Z,80.40
2019-05-11T21:55:58.497Z,80.49
2019-05-11T21:58:29.942Z,81.14
2019-05-11T22:00:59.440Z,80.17
2019-05-11T22:03:33.529Z,81.00
2019-05-11T22:06:01.306Z,80.74
2019-05-11T22:08:29.534Z,80.57
2019-05-11T22:10:59.733Z,80.39
2019-05-11T22:13:28.837Z,80.26
2019-05-11T22:15:57.645Z,80.91
2019-05-11T22:18:30.770Z,80.93
2019-05-11T22:20:54.789Z,81.17
2019-05-11T22:23:22.603Z,80.65
2019-05-11T22:25:51.080Z,80.64
2019-05-11T22:28:18.484Z,80.49
2019-05-11T22:30:48.368Z,80.28
2019-05-11T22:33:17.730Z,80.40
2019-05-11T22:35:45.451Z,80.90
2019-05-11T22:38:16.616Z,80.43
2019-05-11T22:40:44.288Z,80.96
2019-05-11T22:43:18.138Z,81.29
2019-05-11T22:45:45.564Z,81.65
2019-05-11T22:48:15.563Z,81.85
2019-05-11T22:50:45.174Z,81.60
2019-05-11T22:53:15.279Z,81.56
2019-05-11T22:55:42.969Z,82.35
2019-05-11T22:58:10.902Z,81.36
2019-05-11T23:00:42.098Z,81.69
2019-05-11T23:03:10.832Z,81.74
2019-05-11T23:05:41.053Z,81.76
2019-05-11T23:08:12.299Z,81.48
2019-05-11T23:10:42.609Z,82.01
2019-05-11T23:13:11.781Z,81.82
2019-05-11T23:15:43.588Z,82.01
2019-05-11T23:18:17.982Z,81.81
2019-05-11T23:20:47.486Z,82.06
2019-05-11T23:23:15.097Z,81.88
2019-05-11T23:25:42.484Z,82.19
2019-05-11T23:28:09.803Z,81.92
2019-05-11T23:30:38.965Z,82.21
2019-05-11T23:33:07.894Z,82.58
2019-05-11T23:35:37.664Z,82.17
2019-05-11T23:38:05.244Z,82.10
2019-05-11T23:40:32.650Z,82.11
2019-05-11T23:43:00.055Z,82.24
2019-05-11T23:45:28.136Z,82.09
2019-05-11T23:47:55.657Z,82.29
2019-05-11T23:50:23.196Z,82.98
2019-05-11T23:53:05.522Z,82.42
2019-05-11T23:55:22.004Z,82.20
2019-05-11T23:57:51.619Z,82.39
